Aviation Digital Data Service (ADDS)

Output produced by METARs form (2223 UTC 23 September 2014)
found at http://aviationweather.gov/adds/metars/
 
KALB 231723Z 2318/2418 30010KT P6SM SCT040 SCT250 
     FM240000 VRB03KT P6SM FEW040 
     FM240200 00000KT P6SM SKC 
     FM241300 13005KT P6SM SCT030 SCT250